Hlavní strana
METAR-TAF:

METAR-TAF

Letiště :

Kastamonu, Turecko

zeměpisná šířka: 41-19-01N, zeměpisná délka: 33-47-46E, výška: 1073 m

Aktuální stav počasí

Zpráva byla vytvořena před 17 hodinami a 39 minutami, v 08:50 UTC
vítr z různých směrů 1 kt
Teplota 20°C
Vlhkost vzduchu 60%
Tlak 1018 hPa
Viditelnost 10 km a více
Polojasno ve výšce 3000 ft

METAR: LTAL 180850Z VRB01KT 9999 SCT030 20/12 Q1018

Čas: 05:29 (02:29 UTC)

Předpověď počasí

Zpráva byla vytvořena před 12 hodinami a 49 minutami, v 13:40 UTC
Předpověď platná od 18 v 15 UTC do 18 v 24 UTC
vítr z různých směrů 2 kt
Viditelnost 10 km a více
Polojasno ve výšce 3000 ft
Dočasný
od 18 v 15 UTC do 18 v 18 UTC
Oblačno až skoro zataženo ve výšce 2700 ft
Oblačno až skoro zataženo ve výšce 8000 ft
slabé dešťové přeháňky

TAF: LTAL 181340Z 1815/1824 VRB02KT 9999 SCT030 TEMPO 1815/1818 -SHRA BKN027 BKN080

Stav a předpovědi počasí z více než 4 000 letišť (zprávy METAR a TAF).

Červené a žluté tečky na mapě představují dostupné meteorologické stanice.

Když kurzor umístíte na tečku, zobrazí se název stanice.

Pak kliknutím zobrazíte stav a předpověď počasí.

Chcete-li změnit mapu, kliknutím na zelené tlačítko se znaménkem +mapu přiblížíte, kliknutím na zelené tlačítko se znaménkem – mapu oddálíte a kliknutím na zelené šipky přejdete na sousední mapy.


METAR-TAF: